Leander — DD5959 — position and weather

sailwx.info

Track history (hours):
 
Tides and Currents Weather Stations Pressure Air Temp Water Temp Dewpoint Dewpoint Depression Visibility Wind Speed Wind Dir Waves Ship Positions

Leander

Last reported at 2014-Aug-21 11:27 UTC. Time now 2014-Sep-22 22:24 UTC.
Position N 40°51' E 002°21'.
Warning: this ship's position is 32 days out of date.

Length 15 m.

Type: Sailing vessel. MMSI: 211480070.

Date/timePositionNaut miles runAvg speedWind from/ knotsBaromVisibWave heightAir tempDewpointWater temp
2014-Aug-21 11:27N 40°51' E 002°21'7 8.1
2014-Aug-21 10:33N 40°44' E 002°24'9 8.6
2014-Aug-21 09:33N 40°36' E 002°29'9 8.8
2014-Aug-21 08:33N 40°28' E 002°32'9 9.1
2014-Aug-21 07:33N 40°19' E 002°36'9 9.1
2014-Aug-21 06:33N 40°11' E 002°39'9 9.2
2014-Aug-21 05:33N 40°02' E 002°43'9 8.8
2014-Aug-21 04:32N 39°54' E 002°47'23 1.4
2014-Aug-20 12:22N 39°55' E 003°17'6 7.1
2014-Aug-20 11:33N 39°51' E 003°22'31 1.4
2014-Aug-19 13:32N 39°20' E 003°13'6 6.1
2014-Aug-19 12:31N 39°17' E 003°06'4 4.2
2014-Aug-19 11:33N 39°16' E 003°01'3 2.8
2014-Aug-19 10:24N 39°19' E 003°00'1 0.0
2014-Aug-18 17:33N 39°18' E 002°60'8 7.8
2014-Aug-18 16:32N 39°11' E 002°56'2 1.8
2014-Aug-18 15:27N 39°09' E 002°56'0 0.0
2014-Aug-18 14:29N 39°09' E 002°56'3 3.4
2014-Aug-18 13:33N 39°08' E 002°52'6 5.7
2014-Aug-18 12:28N 39°13' E 002°47'6 6.0
2014-Aug-18 11:32N 39°18' E 002°44'6 6.2
2014-Aug-18 10:33N 39°24' E 002°42'5 5.3
2014-Aug-18 09:33N 39°29' E 002°41'5 5.1
2014-Aug-18 08:33N 39°34' E 002°38'  
2014-Aug-11 18:22N 39°06' E 001°27'7 7.1
2014-Aug-11 17:23N 39°12' E 001°25'32 6.6
2014-Aug-11 12:31N 39°44' E 001°30'6 6.1
2014-Aug-11 11:29N 39°50' E 001°31'  
Track history (hours):
 
Tides and Currents Weather Stations Pressure Air Temp Water Temp Dewpoint Dewpoint Depression Visibility Wind Speed Wind Dir Waves Ship Positions

Leander

Last reported at 2014-Aug-21 11:27 UTC. Time now 2014-Sep-22 22:24 UTC.
Position N 40°51' E 002°21'.
Warning: this ship's position is 32 days out of date.

Length 15 m.

Type: Sailing vessel. MMSI: 211480070.

Date/timePositionNaut miles runAvg speedWind from/ knotsBaromVisibWave heightAir tempDewpointWater temp
2014-Aug-21 11:27N 40°51' E 002°21'7 8.1
2014-Aug-21 10:33N 40°44' E 002°24'9 8.6
2014-Aug-21 09:33N 40°36' E 002°29'9 8.8
2014-Aug-21 08:33N 40°28' E 002°32'9 9.1
2014-Aug-21 07:33N 40°19' E 002°36'9 9.1
2014-Aug-21 06:33N 40°11' E 002°39'9 9.2
2014-Aug-21 05:33N 40°02' E 002°43'9 8.8
2014-Aug-21 04:32N 39°54' E 002°47'23 1.4
2014-Aug-20 12:22N 39°55' E 003°17'6 7.1
2014-Aug-20 11:33N 39°51' E 003°22'31 1.4
2014-Aug-19 13:32N 39°20' E 003°13'6 6.1
2014-Aug-19 12:31N 39°17' E 003°06'4 4.2
2014-Aug-19 11:33N 39°16' E 003°01'3 2.8
2014-Aug-19 10:24N 39°19' E 003°00'1 0.0
2014-Aug-18 17:33N 39°18' E 002°60'8 7.8
2014-Aug-18 16:32N 39°11' E 002°56'2 1.8
2014-Aug-18 15:27N 39°09' E 002°56'0 0.0
2014-Aug-18 14:29N 39°09' E 002°56'3 3.4
2014-Aug-18 13:33N 39°08' E 002°52'6 5.7
2014-Aug-18 12:28N 39°13' E 002°47'6 6.0
2014-Aug-18 11:32N 39°18' E 002°44'6 6.2
2014-Aug-18 10:33N 39°24' E 002°42'5 5.3
2014-Aug-18 09:33N 39°29' E 002°41'5 5.1
2014-Aug-18 08:33N 39°34' E 002°38'  
2014-Aug-11 18:22N 39°06' E 001°27'7 7.1
2014-Aug-11 17:23N 39°12' E 001°25'32 6.6
2014-Aug-11 12:31N 39°44' E 001°30'6 6.1
2014-Aug-11 11:29N 39°50' E 001°31'  

Dump ship's entire track history